Aeroporto :
LOGIN :

Iscrizione | Disclaimer

   EN    FR    IT 

 










Sommario :    VFR   VFR Marginale   IFR   IFR Intensivo   IFR Molto Intensivo
Visibilità : 
Base nubi : 
>= 8 km
>= 3000ft
5 / 8 km
1000 / 3000 ft
1500m / 5 km
500 / 1000 ft
800 / 1500m
200 / 500 ft
< 800m
< 200 ft
Simboli :   Temporali  Nebbia  Neve Forte  Precipitazioni Forti  Vento > 20 kt
SIGMETs :   Varie  Temporali  Ghiacco  Turbolenza  Onda orograficha  Ceneri Vulcaniche






- Altitudine del aeroporto : 238 ft
- Codice IATA : FAB


EGLF - Farnborough

ULTIMO METAR :
  • 040520Z AUTO 33002KT 9999 NCD 10/08 Q1022

METARs OBSOLETI :
  • 040450Z AUTO 23003KT 210V350 9999 NCD 10/07 Q1022
  • 040350Z AUTO 26003KT 9999 NCD 09/07 Q1021
  • 040320Z AUTO 25004KT 9999 NCD 09/06 Q1021
  • 040250Z AUTO 23003KT 210V270 9999 NCD 09/06 Q1021

Previsioni scadute.
ATIS : +44 09063 800 400 (*282)



MetMap, La meteo Aeronautica in un colpo d'occhio ! - Copyright ORBIFLY Dicembre 2007 - Disclaimer

ORBIFLY MET'MAP TEAM :

Programmazione e sviluppo : Alexandra Zaïnal
Concezione : Baudouin d'Aumeries
Supporto tecnico e logistico : Manuel Goepfert
Aiuto : Marc-Olivier Méhu
Aiuto per la traduzione : Arnaldo La Scala




FONTI E CREDITI :

   NOAA